Time;durP1;ratioP1;P1;durP2;ratioP2;P2;SDS_P1;SDS_P2;PMS_P1;PMS_P2;Temp;Humidity;BMP_temperature;BMP_pressure;BME280_temperature;BME280_humidity;BME280_pressure;Samples;Min_cycle;Max_cycle;Signal;HPM_P1;HPM_P2
2021/05/24 00:02:23;;;;;;;4.28;1.75;;;;;;;14.49;52.91;99920.13;5095656;28;20028;-64
2021/05/24 00:04:48;;;;;;;6.13;1.95;;;;;;;14.59;53.16;99928.09;5095940;28;20032;-64
2021/05/24 00:07:14;;;;;;;3.97;1.60;;;;;;;14.58;53.11;99942.13;5095869;28;20089;-64
2021/05/24 00:09:40;;;;;;;4.68;1.50;;;;;;;14.58;53.23;99942.94;5095425;28;20039;-64
2021/05/24 00:12:06;;;;;;;4.03;1.50;;;;;;;14.57;53.52;99940.50;5095560;28;20067;-63
2021/05/24 00:14:35;;;;;;;3.92;1.42;;;;;;;14.56;53.53;99945.16;5095626;28;20049;-65
2021/05/24 00:17:01;;;;;;;5.63;1.63;;;;;;;14.53;53.43;99936.75;5095407;28;20027;-66
2021/05/24 00:19:26;;;;;;;4.28;1.50;;;;;;;14.50;53.56;99931.94;5095154;28;20031;-63
2021/05/24 00:21:52;;;;;;;4.03;1.75;;;;;;;14.48;53.86;99932.22;5095162;28;20038;-64
2021/05/24 00:24:17;;;;;;;4.35;1.58;;;;;;;14.45;53.75;99910.94;5094845;28;20480;-64
2021/05/24 00:26:43;;;;;;;3.45;1.30;;;;;;;14.43;53.80;99913.19;5095550;28;20048;-64
2021/05/24 00:29:14;;;;;;;3.38;1.27;;;;;;;14.39;53.91;99913.00;5095133;28;20035;-64
2021/05/24 00:31:41;;;;;;;6.95;2.00;;;;;;;14.38;54.12;99919.59;5094405;28;20508;-64
2021/05/24 00:34:06;;;;;;;8.48;1.40;;;;;;;14.16;54.02;99884.81;5095655;28;20032;-63
2021/05/24 00:36:32;;;;;;;5.22;2.08;;;;;;;14.34;54.28;99932.31;5095164;28;20077;-64
2021/05/24 00:38:57;;;;;;;4.78;1.90;;;;;;;14.30;54.45;99920.38;5095307;28;20528;-64
2021/05/24 00:41:22;;;;;;;4.68;1.83;;;;;;;14.22;54.60;99905.47;5095391;28;20016;-64
2021/05/24 00:43:48;;;;;;;5.68;1.67;;;;;;;14.27;54.62;99921.00;5095382;28;20075;-64
2021/05/24 00:46:13;;;;;;;5.38;1.80;;;;;;;14.25;54.83;99907.59;5087878;28;20028;-63
2021/05/24 00:48:39;;;;;;;7.80;1.63;;;;;;;14.24;54.85;99902.44;5094855;28;20127;-64
2021/05/24 00:51:04;;;;;;;4.05;1.55;;;;;;;14.22;54.93;99913.72;5095068;28;20024;-64
2021/05/24 00:53:30;;;;;;;3.65;1.52;;;;;;;14.17;55.05;99905.63;5095128;28;20032;-64
2021/05/24 00:55:56;;;;;;;2.72;1.42;;;;;;;14.18;55.31;99896.28;5095037;28;20032;-64
2021/05/24 00:58:22;;;;;;;4.90;1.70;;;;;;;14.03;55.06;99875.56;5094119;28;20066;-64
2021/05/24 01:00:48;;;;;;;3.13;1.63;;;;;;;14.11;55.08;99899.47;5093753;28;20028;-64
2021/05/24 01:03:14;;;;;;;6.00;1.95;;;;;;;14.08;55.20;99893.81;5094924;28;20040;-64
2021/05/24 01:05:41;;;;;;;6.13;1.77;;;;;;;14.03;55.41;99885.72;5095414;28;20381;-64
2021/05/24 01:08:10;;;;;;;3.35;1.70;;;;;;;13.80;55.64;99852.88;5095186;28;20032;-63
2021/05/24 01:10:37;;;;;;;3.72;1.58;;;;;;;13.96;55.83;99881.50;5094758;28;20024;-64
2021/05/24 01:13:05;;;;;;;4.45;1.35;;;;;;;13.94;55.83;99875.53;5094962;28;20062;-64
2021/05/24 01:15:30;;;;;;;5.10;1.65;;;;;;;13.87;55.94;99855.16;5095504;28;20035;-66
2021/05/24 01:17:56;;;;;;;5.15;1.38;;;;;;;13.91;55.98;99856.16;5094982;28;20039;-64
2021/05/24 01:20:23;;;;;;;3.05;1.40;;;;;;;13.89;56.07;99856.44;5094670;28;20028;-64
2021/05/24 01:23:06;;;;;;;4.90;1.50;;;;;;;13.67;56.08;99827.19;5094423;28;20415;-64
2021/05/24 01:25:38;;;;;;;4.22;1.80;;;;;;;13.83;56.25;99854.97;5094565;28;20036;-65
2021/05/24 01:28:06;;;;;;;5.22;1.80;;;;;;;13.80;56.28;99858.38;5094591;28;20061;-64
2021/05/24 01:30:32;;;;;;;4.22;1.85;;;;;;;13.34;56.42;99784.41;5096880;28;20048;-66
2021/05/24 01:32:58;;;;;;;5.38;1.75;;;;;;;13.77;56.47;99858.97;5098490;28;20098;-63
2021/05/24 01:35:24;;;;;;;3.97;1.63;;;;;;;13.74;56.63;99848.63;5098969;28;20028;-64
2021/05/24 01:37:49;;;;;;;6.78;1.98;;;;;;;13.69;56.63;99842.19;5091926;28;20028;-64
2021/05/24 01:40:19;;;;;;;5.75;1.65;;;;;;;13.67;56.80;99838.94;5092847;28;20016;-64
2021/05/24 01:42:44;;;;;;;6.50;1.75;;;;;;;13.57;56.86;99825.50;5092662;28;20024;-64
2021/05/24 01:45:10;;;;;;;5.22;1.65;;;;;;;13.56;56.87;99829.34;5096694;28;20039;-64
2021/05/24 01:47:35;;;;;;;4.70;1.70;;;;;;;13.42;57.09;99812.19;5089692;28;20042;-64
2021/05/24 01:50:01;;;;;;;2.40;1.58;;;;;;;13.45;57.08;99819.78;5093518;28;20032;-67
2021/05/24 01:52:26;;;;;;;3.88;1.60;;;;;;;13.54;56.97;99845.31;5095401;28;20028;-63
2021/05/24 01:54:52;;;;;;;5.80;1.67;;;;;;;13.28;57.08;99804.81;5097554;28;20032;-64
2021/05/24 01:57:17;;;;;;;2.70;1.60;;;;;;;12.97;56.96;99756.31;5097934;28;20035;-64
2021/05/24 01:59:43;;;;;;;5.13;1.50;;;;;;;13.46;57.18;99832.38;5098020;28;20032;-64
2021/05/24 02:02:08;;;;;;;4.60;1.73;;;;;;;13.37;57.33;99830.34;5097055;28;20028;-64
2021/05/24 02:04:37;;;;;;;3.90;1.88;;;;;;;13.34;57.43;99830.94;5097713;28;20031;-64
2021/05/24 02:07:03;;;;;;;3.47;1.70;;;;;;;13.30;57.71;99832.72;5093809;28;20035;-66
2021/05/24 02:09:29;;;;;;;4.32;1.90;;;;;;;13.25;58.01;99832.00;5095485;28;20119;-64
2021/05/24 02:11:55;;;;;;;5.38;2.30;;;;;;;13.01;58.20;99809.28;5097991;28;20454;-64
2021/05/24 02:14:20;;;;;;;6.45;1.70;;;;;;;13.17;58.18;99820.69;5098290;28;20385;-64
2021/05/24 02:16:51;;;;;;;5.10;1.67;;;;;;;13.14;58.29;99823.25;5098397;28;20480;-66
2021/05/24 02:19:18;;;;;;;7.57;2.00;;;;;;;13.11;58.32;99816.44;5094141;28;20024;-64
2021/05/24 02:21:44;;;;;;;4.18;1.60;;;;;;;13.02;58.51;99816.38;5096647;28;20023;-64
2021/05/24 02:24:11;;;;;;;13.02;2.10;;;;;;;13.04;58.67;99825.09;5097643;28;20032;-64
2021/05/24 02:26:37;;;;;;;3.17;1.80;;;;;;;13.03;58.86;99828.13;5097769;28;20353;-64
2021/05/24 02:29:04;;;;;;;6.18;1.98;;;;;;;12.99;58.94;99827.13;5097404;28;20058;-64
2021/05/24 02:31:30;;;;;;;4.53;1.88;;;;;;;12.87;58.96;99819.47;5097319;28;20044;-64
2021/05/24 02:33:56;;;;;;;4.75;1.77;;;;;;;12.94;59.16;99819.84;5097607;28;20028;-64
2021/05/24 02:36:24;;;;;;;4.50;1.80;;;;;;;12.91;59.24;99820.44;5098049;28;20027;-64
2021/05/24 02:38:50;;;;;;;4.65;1.70;;;;;;;12.46;59.05;99757.47;5097343;28;20027;-64
2021/05/24 02:41:15;;;;;;;5.95;2.10;;;;;;;12.83;59.34;99813.81;5097080;28;20157;-66
2021/05/24 02:43:41;;;;;;;4.88;1.80;;;;;;;12.62;59.46;99786.09;5097440;28;20484;-64
2021/05/24 02:46:06;;;;;;;4.10;1.70;;;;;;;12.78;59.76;99811.16;5097367;28;20058;-64
2021/05/24 02:48:32;;;;;;;3.08;1.70;;;;;;;12.77;59.47;99806.00;5096767;28;20028;-65
2021/05/24 02:50:58;;;;;;;4.32;1.90;;;;;;;12.75;59.62;99809.06;5097289;28;20396;-64
2021/05/24 02:53:23;;;;;;;5.68;2.38;;;;;;;12.72;59.77;99810.50;5097148;28;20028;-64
2021/05/24 02:55:49;;;;;;;5.43;2.03;;;;;;;12.69;59.79;99811.09;5097208;28;20035;-64
2021/05/24 02:58:14;;;;;;;3.47;1.77;;;;;;;12.67;59.76;99812.53;5097279;28;20028;-65
2021/05/24 03:00:40;;;;;;;14.10;2.13;;;;;;;12.63;59.80;99819.69;5097269;28;20138;-63
2021/05/24 03:03:07;;;;;;;3.58;1.70;;;;;;;12.59;59.88;99814.03;5086320;28;20039;-64
2021/05/24 03:05:33;;;;;;;5.07;1.90;;;;;;;12.44;59.94;99810.53;5089268;28;20043;-65
2021/05/24 03:08:00;;;;;;;3.60;1.60;;;;;;;12.52;60.18;99821.84;5084306;28;20032;-63
2021/05/24 03:10:26;;;;;;;2.72;1.63;;;;;;;12.49;60.16;99819.72;5089804;28;20392;-63
2021/05/24 03:12:52;;;;;;;3.42;1.83;;;;;;;12.44;60.28;99820.63;5092616;28;20027;-64
2021/05/24 03:15:20;;;;;;;4.28;1.83;;;;;;;12.40;60.50;99825.09;5095220;28;20115;-63
2021/05/24 03:17:46;;;;;;;4.85;1.80;;;;;;;12.38;60.41;99825.41;5096567;28;20024;-65
2021/05/24 03:20:13;;;;;;;5.10;1.95;;;;;;;12.37;60.47;99822.97;5096499;28;20028;-64
2021/05/24 03:22:39;;;;;;;4.35;1.88;;;;;;;12.28;60.39;99820.16;5096126;28;20024;-64
2021/05/24 03:25:05;;;;;;;5.20;1.60;;;;;;;11.87;60.48;99753.41;5097055;28;20065;-64
2021/05/24 03:27:31;;;;;;;3.00;2.00;;;;;;;12.29;60.50;99821.78;5092950;28;21256;-67
2021/05/24 03:29:56;;;;;;;4.65;1.70;;;;;;;12.26;60.73;99823.19;5091158;28;20048;-63
2021/05/24 03:32:22;;;;;;;3.83;1.77;;;;;;;12.16;60.93;99808.91;5095332;28;20020;-63
2021/05/24 03:34:47;;;;;;;3.88;1.50;;;;;;;12.16;60.77;99811.63;5090592;28;20031;-63
2021/05/24 03:37:13;;;;;;;2.92;1.75;;;;;;;12.17;60.58;99822.28;5095034;28;20059;-64
2021/05/24 03:39:38;;;;;;;3.83;1.67;;;;;;;12.10;60.74;99816.41;5096319;28;20027;-63
2021/05/24 03:42:04;;;;;;;3.67;1.77;;;;;;;12.13;60.74;99813.06;5096548;28;20751;-63
2021/05/24 03:44:30;;;;;;;3.38;1.85;;;;;;;12.07;60.79;99804.13;5096183;28;20382;-64
2021/05/24 03:46:55;;;;;;;4.03;1.63;;;;;;;12.08;60.81;99811.22;5096039;28;20507;-64
2021/05/24 03:49:21;;;;;;;5.88;1.80;;;;;;;12.07;60.79;99815.06;5096578;28;20023;-65
2021/05/24 03:51:46;;;;;;;3.55;1.90;;;;;;;12.04;60.83;99802.03;5095400;28;20028;-66
2021/05/24 03:54:12;;;;;;;3.80;1.95;;;;;;;12.05;60.88;99794.63;5095568;28;20032;-64
2021/05/24 03:56:37;;;;;;;4.85;2.35;;;;;;;11.86;60.93;99759.19;5095923;28;20024;-64
2021/05/24 03:59:03;;;;;;;4.32;1.95;;;;;;;12.03;61.07;99791.38;5096104;28;20028;-63
2021/05/24 04:01:28;;;;;;;4.68;2.00;;;;;;;12.02;61.26;99778.84;5095819;28;20039;-63
2021/05/24 04:03:55;;;;;;;4.65;1.75;;;;;;;12.00;61.20;99779.16;5096177;28;20111;-64
2021/05/24 04:06:23;;;;;;;2.05;1.42;;;;;;;11.99;61.02;99768.53;5095765;28;20038;-65
2021/05/24 04:08:49;;;;;;;4.32;1.73;;;;;;;11.96;61.17;99764.44;5095816;28;20032;-63
2021/05/24 04:11:14;;;;;;;3.75;1.77;;;;;;;11.94;61.18;99763.94;5095393;28;20020;-64
2021/05/24 04:13:49;;;;;;;3.20;1.70;;;;;;;11.92;61.32;99760.69;5095452;28;20794;-63
2021/05/24 04:16:15;;;;;;;3.13;1.95;;;;;;;11.90;61.69;99773.88;5095391;28;20089;-63
2021/05/24 04:18:44;;;;;;;4.85;2.00;;;;;;;11.89;61.50;99758.59;5095687;28;20024;-64
2021/05/24 04:21:11;;;;;;;5.57;2.03;;;;;;;11.88;61.39;99762.44;5095080;28;20099;-64
2021/05/24 04:23:36;;;;;;;8.15;2.10;;;;;;;11.85;61.54;99752.09;5095345;28;20507;-64
2021/05/24 04:26:01;;;;;;;6.03;2.22;;;;;;;11.85;61.57;99746.63;5095517;28;20676;-66
2021/05/24 04:28:27;;;;;;;3.95;2.20;;;;;;;11.85;61.58;99752.09;5094985;28;20032;-63
2021/05/24 04:30:52;;;;;;;5.15;2.13;;;;;;;11.72;61.78;99737.31;5094816;28;20048;-64
2021/05/24 04:33:18;;;;;;;5.25;2.20;;;;;;;11.82;61.88;99753.50;5095390;28;20036;-64
2021/05/24 04:35:43;;;;;;;3.63;2.00;;;;;;;11.81;61.86;99752.72;5095209;28;20027;-64
2021/05/24 04:38:09;;;;;;;6.38;2.30;;;;;;;11.80;61.71;99762.03;5095588;28;20024;-64
2021/05/24 04:40:34;;;;;;;4.78;2.00;;;;;;;11.79;61.92;99771.31;5094818;28;20027;-63
2021/05/24 04:43:00;;;;;;;4.90;2.25;;;;;;;11.69;61.93;99779.69;5095104;28;20016;-63
2021/05/24 04:45:25;;;;;;;6.78;1.95;;;;;;;11.67;62.02;99803.75;5091356;28;20111;-63
2021/05/24 04:47:51;;;;;;;6.32;1.73;;;;;;;11.63;62.38;99798.09;5090758;28;20028;-64
2021/05/24 04:50:17;;;;;;;3.13;1.90;;;;;;;11.63;62.50;99789.09;5095202;28;20063;-64
2021/05/24 04:52:43;;;;;;;5.80;2.80;;;;;;;11.63;62.66;99797.28;5094834;28;20039;-64
2021/05/24 04:55:10;;;;;;;3.72;2.08;;;;;;;11.63;62.62;99794.56;5095244;28;20039;-64
2021/05/24 04:57:35;;;;;;;4.10;1.92;;;;;;;11.57;62.42;99790.31;5094713;28;20430;-64
2021/05/24 05:00:01;;;;;;;6.20;2.13;;;;;;;11.32;62.67;99754.94;5095091;28;20024;-66
2021/05/24 05:02:29;;;;;;;6.53;2.10;;;;;;;11.48;62.53;99782.81;5094989;28;20506;-64
2021/05/24 05:04:56;;;;;;;5.75;2.00;;;;;;;11.56;62.84;99784.03;5098202;28;20016;-64
2021/05/24 05:07:22;;;;;;;3.28;1.90;;;;;;;11.59;62.63;99788.06;5099548;28;20114;-64
2021/05/24 05:09:47;;;;;;;3.63;2.00;;;;;;;11.38;62.82;99755.69;5099453;28;20058;-65
2021/05/24 05:12:13;;;;;;;4.13;1.90;;;;;;;11.62;62.78;99798.41;5098745;28;20024;-64
2021/05/24 05:14:38;;;;;;;6.03;2.17;;;;;;;11.37;62.60;99767.69;5098367;28;20499;-63
2021/05/24 05:17:04;;;;;;;5.55;1.98;;;;;;;11.64;62.74;99805.19;5099139;28;20617;-64
2021/05/24 05:19:29;;;;;;;5.47;2.15;;;;;;;11.67;62.46;99811.16;5099276;28;20365;-63
2021/05/24 05:21:55;;;;;;;6.80;2.30;;;;;;;11.67;62.68;99806.50;5098988;28;20027;-64
2021/05/24 05:24:20;;;;;;;7.63;2.45;;;;;;;11.66;62.71;99804.88;5098200;28;20016;-64
2021/05/24 05:26:46;;;;;;;6.88;2.20;;;;;;;11.72;62.82;99811.06;5098496;28;20139;-66
2021/05/24 05:29:11;;;;;;;5.35;2.17;;;;;;;11.72;62.77;99814.59;5098345;28;20031;-64
2021/05/24 05:31:37;;;;;;;4.63;2.03;;;;;;;11.73;62.95;99823.59;5098051;28;20044;-63
2021/05/24 05:34:03;;;;;;;6.30;2.28;;;;;;;11.75;62.79;99830.38;5098912;28;20052;-64
2021/05/24 05:36:29;;;;;;;4.32;2.08;;;;;;;11.78;62.68;99837.16;5098776;28;20032;-64
2021/05/24 05:38:55;;;;;;;3.75;2.00;;;;;;;11.80;62.89;99840.41;5098259;28;20020;-64
2021/05/24 05:41:20;;;;;;;6.60;2.17;;;;;;;11.80;62.98;99833.03;5098729;28;20024;-65
2021/05/24 05:43:46;;;;;;;4.57;2.10;;;;;;;11.84;62.88;99843.34;5097801;28;20131;-66
2021/05/24 05:46:11;;;;;;;5.65;2.20;;;;;;;11.85;62.61;99842.25;5098358;28;20039;-64
2021/05/24 05:48:37;;;;;;;4.13;1.90;;;;;;;11.85;62.77;99847.69;5098570;28;20107;-63
2021/05/24 05:51:03;;;;;;;5.90;2.10;;;;;;;11.88;62.71;99858.84;5098625;28;20068;-64
2021/05/24 05:53:29;;;;;;;4.65;2.30;;;;;;;11.82;63.11;99844.44;5098443;28;20072;-64
2021/05/24 05:55:55;;;;;;;6.15;2.97;;;;;;;11.92;63.02;99853.56;5098322;28;20069;-64
2021/05/24 05:58:20;;;;;;;8.13;2.20;;;;;;;11.94;62.77;99843.97;5098310;28;20119;-64
2021/05/24 06:00:45;;;;;;;6.47;2.45;;;;;;;11.99;62.84;99842.28;5097654;28;20016;-66
2021/05/24 06:03:12;;;;;;;4.38;2.00;;;;;;;11.98;62.93;99840.66;5098370;28;20043;-64
2021/05/24 06:05:38;;;;;;;5.80;2.38;;;;;;;12.07;62.84;99856.06;5098461;28;20036;-63
2021/05/24 06:08:04;;;;;;;5.18;2.03;;;;;;;12.11;62.62;99868.03;5098059;28;20032;-63
2021/05/24 06:10:31;;;;;;;7.32;2.28;;;;;;;12.15;62.43;99859.22;5098324;28;20502;-63
2021/05/24 06:12:56;;;;;;;5.72;1.90;;;;;;;12.18;62.52;99851.22;5097316;28;20036;-64
2021/05/24 06:15:21;;;;;;;5.82;2.20;;;;;;;12.25;62.36;99853.53;5097159;28;20024;-64
2021/05/24 06:17:47;;;;;;;5.30;1.75;;;;;;;12.30;62.32;99860.84;5096809;28;20038;-64
2021/05/24 06:20:13;;;;;;;5.28;1.77;;;;;;;12.32;62.39;99851.22;5098510;28;20058;-64
2021/05/24 06:22:39;;;;;;;3.58;1.90;;;;;;;12.35;62.25;99855.28;5097036;28;20051;-63
2021/05/24 06:25:06;;;;;;;3.97;1.73;;;;;;;12.40;61.98;99864.19;5096535;28;20021;-63
2021/05/24 06:27:32;;;;;;;3.63;1.98;;;;;;;12.41;62.01;99856.81;5096743;28;20030;-64
2021/05/24 06:29:57;;;;;;;2.83;1.60;;;;;;;12.46;61.98;99870.34;5097369;28;20142;-64
2021/05/24 06:32:22;;;;;;;4.53;1.88;;;;;;;12.40;62.22;99853.25;5097325;28;20385;-64
2021/05/24 06:34:49;;;;;;;5.10;1.70;;;;;;;12.54;62.04;99857.91;5097783;28;20044;-64
2021/05/24 06:37:14;;;;;;;2.60;1.63;;;;;;;12.62;62.05;99865.41;5097628;28;20084;-63
2021/05/24 06:39:40;;;;;;;7.55;2.47;;;;;;;12.68;62.07;99866.91;5097110;28;20028;-63
2021/05/24 06:42:06;;;;;;;5.18;2.10;;;;;;;12.73;61.76;99874.19;5097387;28;20024;-63
2021/05/24 06:44:31;;;;;;;7.50;2.63;;;;;;;12.80;61.50;99873.78;5097124;28;20043;-66
2021/05/24 06:46:57;;;;;;;4.38;1.80;;;;;;;12.86;61.52;99869.81;5088860;28;20028;-63
2021/05/24 06:49:22;;;;;;;4.40;1.60;;;;;;;12.90;61.63;99877.13;5096290;28;20028;-64
2021/05/24 06:51:49;;;;;;;5.68;1.58;;;;;;;12.94;61.51;99880.03;5096806;28;20035;-64
2021/05/24 06:54:15;;;;;;;2.75;1.65;;;;;;;12.99;61.18;99868.97;5097179;28;20099;-63
2021/05/24 06:56:40;;;;;;;5.07;1.50;;;;;;;13.02;61.16;99878.50;5096663;28;20050;-63
2021/05/24 06:59:06;;;;;;;3.55;1.50;;;;;;;12.99;61.24;99873.66;5097255;28;20050;-63
2021/05/24 07:01:31;;;;;;;4.20;1.73;;;;;;;13.11;61.02;99912.22;5097051;28;20016;-66
2021/05/24 07:03:57;;;;;;;5.43;2.00;;;;;;;13.09;61.36;99919.97;5096884;28;20027;-63
2021/05/24 07:06:22;;;;;;;4.53;2.17;;;;;;;13.10;61.42;99915.28;5097201;28;20032;-63
2021/05/24 07:08:48;;;;;;;8.65;2.83;;;;;;;13.10;61.53;99923.50;5096035;28;20445;-64
2021/05/24 07:11:13;;;;;;;5.65;2.63;;;;;;;12.94;61.59;99914.78;5096291;28;20020;-65
2021/05/24 07:13:38;;;;;;;6.57;2.85;;;;;;;13.07;61.55;99916.72;5096885;28;20492;-64
2021/05/24 07:16:04;;;;;;;7.28;3.33;;;;;;;13.14;61.31;99927.25;5097330;28;20020;-65
2021/05/24 07:18:30;;;;;;;4.35;2.90;;;;;;;13.12;61.17;99941.22;5095908;28;20046;-64
2021/05/24 07:20:55;;;;;;;6.82;2.90;;;;;;;13.23;60.77;99942.63;5095909;28;20582;-64
2021/05/24 07:23:20;;;;;;;6.82;2.08;;;;;;;13.27;60.71;99948.31;5096124;28;20059;-65
2021/05/24 07:25:46;;;;;;;5.85;2.17;;;;;;;13.47;60.67;99952.53;5096904;28;20071;-66
2021/05/24 07:28:11;;;;;;;3.80;1.95;;;;;;;13.65;60.45;99941.72;5096952;28;20016;-65
2021/05/24 07:30:37;;;;;;;4.95;1.90;;;;;;;13.81;60.11;99951.22;5096824;28;20496;-64
2021/05/24 07:33:03;;;;;;;6.00;2.25;;;;;;;13.82;59.81;99928.16;5096311;28;20032;-65
2021/05/24 07:35:29;;;;;;;1.90;1.40;;;;;;;14.08;59.38;99941.22;5096975;28;20024;-64
2021/05/24 07:37:54;;;;;;;3.85;1.70;;;;;;;14.06;59.03;99923.47;5091269;28;20081;-64
2021/05/24 07:40:20;;;;;;;5.00;1.60;;;;;;;14.30;58.45;99945.06;5088092;28;20101;-64
2021/05/24 07:42:46;;;;;;;4.68;1.75;;;;;;;14.41;58.35;99942.84;5096249;28;20020;-67
2021/05/24 07:45:13;;;;;;;3.53;1.40;;;;;;;14.51;57.88;99939.84;5095590;28;20471;-66
2021/05/24 07:47:38;;;;;;;3.40;1.50;;;;;;;14.30;57.32;99901.19;5095242;28;20154;-64
2021/05/24 07:50:05;;;;;;;2.67;1.30;;;;;;;14.58;56.79;99929.22;5096459;28;20054;-64
2021/05/24 07:52:30;;;;;;;3.55;1.20;;;;;;;14.14;56.75;99860.47;5095632;28;20028;-66
2021/05/24 07:54:58;;;;;;;1.90;1.20;;;;;;;14.57;56.38;99943.25;5096462;28;20020;-64
2021/05/24 07:57:23;;;;;;;3.53;1.50;;;;;;;14.49;56.18;99966.75;5095867;28;20083;-66
2021/05/24 07:59:49;;;;;;;2.55;1.23;;;;;;;14.25;56.69;99937.78;5094750;28;20020;-63
2021/05/24 08:02:14;;;;;;;4.32;1.50;;;;;;;14.45;56.85;99966.59;5095717;28;20020;-64
2021/05/24 08:04:40;;;;;;;2.20;1.17;;;;;;;14.51;56.87;99971.94;5096088;28;20024;-64
2021/05/24 08:07:05;;;;;;;2.72;1.30;;;;;;;14.64;56.85;99977.31;5096527;28;20027;-63
2021/05/24 08:09:31;;;;;;;8.40;1.60;;;;;;;14.67;56.87;99967.66;5093619;28;20020;-66
2021/05/24 08:11:56;;;;;;;3.03;1.23;;;;;;;14.94;56.51;99983.13;5095188;28;20111;-64
2021/05/24 08:14:21;;;;;;;5.32;1.60;;;;;;;15.03;55.67;99982.34;5095551;28;20173;-64
2021/05/24 08:16:48;;;;;;;3.22;1.15;;;;;;;15.23;55.41;99991.94;5094343;28;20498;-64
2021/05/24 08:19:15;;;;;;;3.95;1.10;;;;;;;15.39;55.32;99995.84;5092792;28;20020;-63
2021/05/24 08:21:46;;;;;;;3.72;1.30;;;;;;;15.57;55.19;99993.13;5095908;28;20507;-64
2021/05/24 08:24:12;;;;;;;4.93;1.52;;;;;;;15.51;54.57;99975.16;5096010;28;20023;-64
2021/05/24 08:26:38;;;;;;;2.33;1.00;;;;;;;15.78;53.35;100012.53;5096232;28;20031;-63
2021/05/24 08:29:04;;;;;;;3.33;1.30;;;;;;;15.81;52.74;100016.56;5096125;28;20028;-64
2021/05/24 08:31:29;;;;;;;3.92;1.38;;;;;;;15.70;52.67;100005.88;5095521;28;20044;-63
2021/05/24 08:33:55;;;;;;;3.95;1.15;;;;;;;15.75;52.77;100015.91;5095559;28;20028;-63
2021/05/24 08:36:20;;;;;;;3.78;1.40;;;;;;;15.73;53.11;100007.16;5096200;28;20023;-65
2021/05/24 08:38:46;;;;;;;2.47;1.20;;;;;;;15.78;53.26;100011.69;5095031;28;20020;-66
2021/05/24 08:41:11;;;;;;;5.45;1.60;;;;;;;15.79;53.42;100016.06;5096115;28;20020;-64
2021/05/24 08:43:38;;;;;;;3.33;1.23;;;;;;;15.79;53.61;100013.31;5095843;28;20024;-63
2021/05/24 08:46:04;;;;;;;3.53;1.27;;;;;;;15.82;53.68;100018.97;5095719;28;20043;-64
2021/05/24 08:48:29;;;;;;;3.80;1.20;;;;;;;15.83;53.60;100023.38;5095504;28;20028;-64
2021/05/24 08:50:54;;;;;;;3.70;1.08;;;;;;;15.84;53.77;100027.75;5095999;28;20073;-64
2021/05/24 08:53:20;;;;;;;2.30;1.40;;;;;;;15.76;53.91;100008.47;5095562;28;20078;-64
2021/05/24 08:55:46;;;;;;;3.05;1.30;;;;;;;15.91;53.93;100020.94;5095530;28;20024;-66
2021/05/24 08:58:12;;;;;;;4.00;1.42;;;;;;;15.93;54.10;100024.19;5095862;28;20024;-64
2021/05/24 09:00:38;;;;;;;2.55;1.20;;;;;;;15.91;54.07;100038.25;5095691;28;20028;-64
2021/05/24 09:03:04;;;;;;;5.15;1.25;;;;;;;15.83;54.54;100039.88;5095209;28;20039;-64
2021/05/24 09:05:31;;;;;;;4.63;1.25;;;;;;;15.81;54.72;100042.09;5095822;28;20035;-64
2021/05/24 09:08:04;;;;;;;1.67;1.00;;;;;;;15.78;54.61;100045.50;5095192;28;20497;-64
2021/05/24 09:10:31;;;;;;;8.05;1.75;;;;;;;15.73;54.90;100034.66;5081983;28;20035;-64
2021/05/24 09:12:57;;;;;;;2.55;1.23;;;;;;;15.73;55.06;100048.41;5095494;28;20396;-63
2021/05/24 09:15:24;;;;;;;5.22;1.30;;;;;;;15.81;55.16;100057.78;5089136;28;20059;-64
2021/05/24 09:17:53;;;;;;;4.35;1.10;;;;;;;15.75;55.66;100068.13;5095228;28;20024;-64
2021/05/24 09:20:18;;;;;;;2.55;1.00;;;;;;;15.73;55.94;100078.63;5083281;28;20381;-63
2021/05/24 09:22:44;;;;;;;6.75;1.20;;;;;;;15.71;56.08;100087.22;5095564;28;20395;-64
2021/05/24 09:25:09;;;;;;;3.72;1.25;;;;;;;15.66;56.19;100081.84;5095398;28;20107;-63
2021/05/24 09:27:37;;;;;;;4.55;1.15;;;;;;;15.60;56.43;100085.09;5095598;28;20384;-63
2021/05/24 09:30:05;;;;;;;3.50;1.10;;;;;;;15.58;56.66;100088.97;5095077;28;20044;-63
2021/05/24 09:32:32;;;;;;;2.38;1.00;;;;;;;15.61;56.61;100100.44;5091209;28;20024;-66
2021/05/24 09:35:05;;;;;;;2.75;0.95;;;;;;;15.56;57.01;100109.66;5095121;28;20047;-63
2021/05/24 09:37:31;;;;;;;3.88;1.35;;;;;;;15.53;57.33;100104.78;5089169;28;20031;-64
2021/05/24 09:39:57;;;;;;;2.88;1.05;;;;;;;15.45;57.79;100117.38;5092397;28;20049;-63
2021/05/24 09:42:23;;;;;;;4.28;1.30;;;;;;;15.40;58.50;100110.09;5095266;28;20028;-64
2021/05/24 09:44:51;;;;;;;5.07;1.25;;;;;;;15.41;58.53;100113.63;5095060;28;20032;-64
2021/05/24 09:47:38;;;;;;;3.08;1.10;;;;;;;15.39;59.33;100118.63;5095282;28;20047;-64
2021/05/24 09:50:21;;;;;;;4.32;1.05;;;;;;;15.32;59.76;100121.03;5084266;28;20538;-63
2021/05/24 09:52:47;;;;;;;1.83;1.00;;;;;;;15.30;59.75;100128.78;5098744;28;20091;-64
2021/05/24 09:55:22;;;;;;;3.67;1.05;;;;;;;15.38;60.13;100120.59;5099142;28;20149;-64
2021/05/24 09:58:02;;;;;;;3.20;1.00;;;;;;;15.29;61.83;100122.47;5098666;28;20024;-63
2021/05/24 10:00:41;;;;;;;3.75;1.10;;;;;;;15.21;63.38;100129.53;5098199;28;20101;-63
2021/05/24 10:03:09;;;;;;;4.32;1.17;;;;;;;15.04;63.50;100121.25;5098607;28;20043;-63
2021/05/24 10:05:48;;;;;;;3.90;1.20;;;;;;;15.00;64.57;100131.22;5098677;28;20035;-64
2021/05/24 10:08:14;;;;;;;3.85;1.33;;;;;;;14.94;64.80;100145.09;5098368;28;20088;-64
2021/05/24 10:10:41;;;;;;;5.15;1.25;;;;;;;14.83;65.14;100138.25;5084600;28;20063;-63
2021/05/24 10:13:07;;;;;;;5.63;1.38;;;;;;;14.83;65.31;100151.16;5098617;28;20028;-64
2021/05/24 10:15:36;;;;;;;5.28;1.10;;;;;;;14.84;64.88;100153.59;5098356;28;20047;-64
2021/05/24 10:18:02;;;;;;;2.58;1.15;;;;;;;14.76;65.07;100160.63;5098513;28;20074;-66
2021/05/24 10:20:29;;;;;;;2.88;1.10;;;;;;;14.75;65.06;100160.94;5086470;28;20024;-64
2021/05/24 10:22:55;;;;;;;3.97;1.10;;;;;;;14.70;65.44;100147.38;5097821;28;20030;-63
2021/05/24 10:25:22;;;;;;;2.80;1.27;;;;;;;14.57;65.34;100135.31;5097820;28;20027;-64
2021/05/24 10:27:48;;;;;;;4.63;1.42;;;;;;;14.73;65.67;100152.22;5098250;28;20048;-64
2021/05/24 10:30:14;;;;;;;3.15;1.48;;;;;;;14.79;65.51;100173.75;5097838;28;20083;-64
2021/05/24 10:32:59;;;;;;;4.05;1.17;;;;;;;14.80;66.19;100182.78;5097806;28;20543;-63
2021/05/24 10:35:42;;;;;;;1.80;1.10;;;;;;;14.73;66.66;100175.00;5091324;28;20133;-64
2021/05/24 10:38:30;;;;;;;2.10;1.13;;;;;;;14.72;66.13;100184.34;5097876;28;20263;-63
2021/05/24 10:41:09;;;;;;;2.55;1.10;;;;;;;14.64;66.37;100188.59;5097803;28;20399;-63
2021/05/24 10:44:07;;;;;;;2.47;1.20;;;;;;;14.61;66.34;100194.72;5091972;28;20032;-64
2021/05/24 10:46:35;;;;;;;1.65;1.08;;;;;;;14.59;66.33;100199.72;5097421;28;20039;-64
2021/05/24 10:49:12;;;;;;;1.88;1.20;;;;;;;14.50;67.18;100189.78;5098081;28;20095;-64
2021/05/24 10:51:47;;;;;;;3.50;1.10;;;;;;;14.51;66.56;100213.34;5085884;28;20043;-63
2021/05/24 10:54:22;;;;;;;3.85;1.42;;;;;;;14.49;65.73;100227.38;5097656;28;20039;-63
2021/05/24 10:57:00;;;;;;;3.00;0.90;;;;;;;14.48;64.54;100228.50;5097984;28;20046;-64
2021/05/24 10:59:52;;;;;;;2.28;1.00;;;;;;;14.46;64.65;100236.25;5097606;28;20114;-65
2021/05/24 11:02:28;;;;;;;1.98;0.85;;;;;;;14.38;65.03;100228.75;5094480;28;20068;-64
2021/05/24 11:04:56;;;;;;;2.58;1.17;;;;;;;14.36;64.83;100236.47;5097258;28;20384;-64
2021/05/24 11:07:38;;;;;;;2.15;0.90;;;;;;;14.38;64.57;100239.72;5097210;28;20024;-64
2021/05/24 11:10:20;;;;;;;2.92;1.30;;;;;;;14.35;64.46;100241.13;5085239;28;20025;-63
2021/05/24 11:12:46;;;;;;;4.40;1.20;;;;;;;14.31;64.45;100243.66;5084728;28;20476;-64
2021/05/24 11:15:12;;;;;;;2.75;1.15;;;;;;;14.36;64.28;100255.66;5097264;28;20031;-63
2021/05/24 11:18:00;;;;;;;3.15;1.35;;;;;;;14.40;63.59;100256.66;5091446;28;20469;-63
2021/05/24 11:20:59;;;;;;;3.88;1.35;;;;;;;14.41;62.85;100250.06;5095241;28;20031;-63
2021/05/24 11:26:16;;;;;;;2.47;1.10;;;;;;;14.43;61.60;100259.59;5097253;28;20111;-64
2021/05/24 11:28:53;;;;;;;5.32;1.40;;;;;;;14.09;61.50;100199.72;5097021;28;20036;-64
2021/05/24 11:31:21;;;;;;;3.17;1.38;;;;;;;14.55;61.17;100258.25;5096542;28;20412;-63
2021/05/24 11:33:50;;;;;;;4.05;1.17;;;;;;;14.63;60.71;100263.00;5095028;28;20024;-64
2021/05/24 11:36:20;;;;;;;2.97;1.25;;;;;;;14.75;60.64;100257.00;5097081;28;20032;-64